Time;durP1;ratioP1;P1;durP2;ratioP2;P2;SDS_P1;SDS_P2;PMS_P1;PMS_P2;Temp;Humidity;BMP_temperature;BMP_pressure;BME280_temperature;BME280_humidity;BME280_pressure;Samples;Min_cycle;Max_cycle;Signal;HPM_P1;HPM_P2
2023/08/07 20:49:19;;;;;;;5.20;2.40;;;;;;;15.87;62.25;99095.64;102662;1266;97814;-72
2023/08/07 20:51:47;;;;;;;3.90;2.40;;;;;;;15.84;62.43;99100.42;103507;1264;111587;-72
2023/08/07 20:54:15;;;;;;;3.10;2.10;;;;;;;15.83;62.67;99103.34;102707;1259;138587;-73
2023/08/07 20:56:44;;;;;;;3.40;2.30;;;;;;;15.83;62.71;99103.51;102986;1259;98326;-72
2023/08/07 20:59:14;;;;;;;4.60;2.10;;;;;;;15.82;62.92;99111.13;102754;1259;108853;-73
2023/08/07 21:01:43;;;;;;;2.90;2.00;;;;;;;15.82;62.92;99105.85;102695;1260;138337;-73
2023/08/07 21:04:12;;;;;;;4.50;2.20;;;;;;;15.84;63.06;99107.81;103911;1260;112776;-74
2023/08/07 21:06:43;;;;;;;5.00;2.20;;;;;;;15.83;63.25;99111.38;102622;1259;138393;-73
2023/08/07 21:09:10;;;;;;;5.50;2.20;;;;;;;15.83;63.39;99110.36;102771;1258;98725;-73
2023/08/07 21:11:42;;;;;;;4.30;2.30;;;;;;;15.86;63.38;99109.90;102754;1259;108172;-72
2023/08/07 21:14:10;;;;;;;3.90;2.40;;;;;;;15.85;63.40;99111.76;102751;1260;97837;-74
2023/08/07 21:16:45;;;;;;;3.40;2.20;;;;;;;15.85;63.71;99115.77;102818;1260;111035;-72
2023/08/07 21:19:13;;;;;;;2.80;2.20;;;;;;;15.88;63.82;99113.66;102686;1264;138359;-74
2023/08/07 21:21:41;;;;;;;2.70;2.30;;;;;;;15.87;63.89;99115.79;102759;1260;97878;-73
2023/08/07 21:24:11;;;;;;;3.50;1.90;;;;;;;15.86;64.05;99110.27;102739;1263;139943;-73
2023/08/07 21:26:39;;;;;;;3.70;2.30;;;;;;;15.87;64.03;99113.20;103287;1260;97707;-73
2023/08/07 21:29:06;;;;;;;3.30;1.90;;;;;;;15.86;64.48;99108.33;102838;1259;110436;-72
2023/08/07 21:31:34;;;;;;;6.90;2.20;;;;;;;15.87;64.43;99106.73;102984;1260;138870;-72
2023/08/07 21:34:01;;;;;;;3.00;1.90;;;;;;;15.85;64.74;99106.84;103348;1259;98314;-72
2023/08/07 21:36:28;;;;;;;3.40;2.00;;;;;;;15.86;64.86;99104.31;102743;1260;138317;-73
2023/08/07 21:38:57;;;;;;;3.00;2.10;;;;;;;15.84;64.97;99106.02;102848;1259;97789;-73
2023/08/07 21:41:25;;;;;;;3.80;2.20;;;;;;;15.82;65.11;99104.44;102850;1259;110405;-73
2023/08/07 21:43:52;;;;;;;3.50;1.90;;;;;;;15.79;65.34;99111.11;102739;1259;138534;-73
2023/08/07 21:46:19;;;;;;;2.20;2.00;;;;;;;15.75;65.47;99110.16;102876;1263;98289;-72
2023/08/07 21:48:50;;;;;;;4.60;2.10;;;;;;;15.76;65.87;99114.00;103233;1259;138122;-73
2023/08/07 21:51:18;;;;;;;5.30;2.30;;;;;;;15.77;65.80;99114.77;102715;1264;97842;-72
2023/08/07 21:53:45;;;;;;;2.60;2.10;;;;;;;15.76;65.84;99116.41;103241;1261;110951;-72
2023/08/07 21:56:12;;;;;;;4.50;2.20;;;;;;;15.79;66.08;99116.23;102745;1260;109745;-72
2023/08/07 21:58:39;;;;;;;3.50;2.10;;;;;;;15.82;66.25;99116.53;102789;1260;97722;-73
2023/08/07 22:01:07;;;;;;;3.50;2.00;;;;;;;15.88;66.41;99112.05;103197;1261;138386;-72
2023/08/07 22:03:34;;;;;;;5.40;2.00;;;;;;;15.94;66.53;99112.13;104209;1260;96040;-72
2023/08/07 22:06:01;;;;;;;3.10;1.80;;;;;;;15.98;66.36;99115.73;104125;1261;138967;-72
2023/08/07 22:08:29;;;;;;;5.50;2.00;;;;;;;16.02;66.44;99114.16;103294;1263;109096;-73
2023/08/07 22:11:00;;;;;;;4.40;1.90;;;;;;;16.06;66.59;99115.85;103549;1261;98346;-72
2023/08/07 22:13:26;;;;;;;3.40;1.80;;;;;;;16.03;66.69;99115.19;102663;1260;138277;-73
2023/08/07 22:15:54;;;;;;;4.30;1.80;;;;;;;16.02;66.83;99113.83;102761;1260;97670;-73
2023/08/07 22:18:21;;;;;;;4.10;2.30;;;;;;;16.03;67.10;99113.80;102721;1261;138374;-73
2023/08/07 22:20:48;;;;;;;2.30;1.50;;;;;;;16.04;67.19;99115.63;102810;1260;108112;-73
2023/08/07 22:23:16;;;;;;;2.70;2.10;;;;;;;16.04;67.47;99116.85;102742;1261;97795;-71
2023/08/07 22:25:43;;;;;;;3.80;2.20;;;;;;;16.02;67.75;99118.75;102690;1260;138192;-72
2023/08/07 22:28:10;;;;;;;5.50;2.00;;;;;;;16.00;67.87;99121.02;102804;1261;97671;-72
2023/08/07 22:30:37;;;;;;;2.00;1.70;;;;;;;15.98;68.25;99120.96;102598;1260;138142;-72
2023/08/07 22:33:06;;;;;;;4.30;2.00;;;;;;;15.94;68.51;99124.19;103141;1264;107062;-73
2023/08/07 22:35:33;;;;;;;2.30;1.80;;;;;;;15.92;68.94;99127.86;103274;1261;97869;-73
2023/08/07 22:38:01;;;;;;;5.70;2.00;;;;;;;15.93;69.36;99127.45;102863;1260;138318;-72
2023/08/07 22:40:28;;;;;;;3.20;2.00;;;;;;;15.89;69.53;99129.88;102787;1264;97907;-72
2023/08/07 22:42:55;;;;;;;3.00;1.80;;;;;;;15.88;69.65;99131.02;102672;1260;138520;-72
2023/08/07 22:45:22;;;;;;;3.70;2.10;;;;;;;15.96;69.94;99124.95;104234;1259;107857;-73
2023/08/07 22:47:49;;;;;;;3.30;2.00;;;;;;;16.05;70.06;99125.55;103021;1264;138654;-72
2023/08/07 22:50:18;;;;;;;4.20;1.80;;;;;;;16.08;69.99;99126.57;102759;1262;108284;-72
2023/08/07 22:52:46;;;;;;;5.10;2.20;;;;;;;16.12;69.96;99120.65;102698;1264;97898;-72
2023/08/07 22:55:13;;;;;;;5.60;2.00;;;;;;;16.13;70.09;99121.64;102629;1264;138239;-72
2023/08/07 22:57:40;;;;;;;4.70;1.90;;;;;;;16.13;70.18;99121.42;102760;1260;108601;-72
2023/08/07 23:00:11;;;;;;;3.80;1.90;;;;;;;16.22;70.46;99125.17;102685;1260;138591;-72
2023/08/07 23:02:38;;;;;;;4.70;1.90;;;;;;;16.26;70.32;99122.60;102732;1260;108337;-72
2023/08/07 23:05:07;;;;;;;3.30;2.00;;;;;;;16.30;70.29;99126.50;102735;1264;97900;-72
2023/08/07 23:07:34;;;;;;;3.60;2.10;;;;;;;16.32;70.32;99128.08;102614;1261;138791;-71
2023/08/07 23:10:02;;;;;;;5.00;2.10;;;;;;;16.34;70.42;99123.92;103396;1261;107368;-71
2023/08/07 23:12:29;;;;;;;4.40;1.90;;;;;;;16.38;70.47;99124.35;103302;1260;138523;-71
2023/08/07 23:14:56;;;;;;;5.50;1.90;;;;;;;16.40;70.36;99121.77;102827;1261;107877;-70
2023/08/07 23:17:23;;;;;;;5.80;2.40;;;;;;;16.39;70.57;99125.36;102808;1263;97684;-71
2023/08/07 23:19:50;;;;;;;3.70;1.60;;;;;;;16.39;70.51;99126.61;102697;1264;138168;-71
2023/08/07 23:22:21;;;;;;;3.90;2.20;;;;;;;16.37;70.61;99126.00;102754;1259;107884;-72
2023/08/07 23:24:48;;;;;;;3.90;2.10;;;;;;;16.32;70.64;99122.67;102741;1260;139048;-71
2023/08/07 23:27:15;;;;;;;4.00;2.10;;;;;;;16.30;71.04;99121.38;102772;1261;109584;-72
2023/08/07 23:29:45;;;;;;;5.00;2.10;;;;;;;16.30;70.75;99121.27;102809;1264;97820;-71
2023/08/07 23:32:13;;;;;;;4.30;2.10;;;;;;;16.28;71.18;99119.76;103016;1260;111265;-71
2023/08/07 23:34:40;;;;;;;4.20;2.00;;;;;;;16.34;71.13;99124.79;102782;1262;108665;-71
2023/08/07 23:37:07;;;;;;;4.30;1.90;;;;;;;16.40;70.83;99128.44;102715;1263;138452;-71
2023/08/07 23:39:34;;;;;;;5.20;2.20;;;;;;;16.38;70.59;99129.08;103735;1263;107770;-71
2023/08/07 23:42:01;;;;;;;2.30;1.70;;;;;;;16.34;70.51;99126.20;102722;1262;139972;-71
2023/08/07 23:44:28;;;;;;;5.80;2.10;;;;;;;16.28;70.55;99127.67;103176;1260;111378;-72
2023/08/07 23:46:55;;;;;;;4.00;1.80;;;;;;;16.27;70.31;99127.29;103786;1259;107549;-72
2023/08/07 23:49:22;;;;;;;5.10;2.30;;;;;;;16.21;70.25;99130.84;102712;1263;138376;-71
2023/08/07 23:51:50;;;;;;;8.40;2.30;;;;;;;16.16;70.14;99129.52;102776;1260;107321;-72
2023/08/07 23:54:17;;;;;;;7.10;2.10;;;;;;;16.08;70.26;99133.07;102694;1263;139388;-72
2023/08/07 23:56:44;;;;;;;4.40;2.30;;;;;;;16.01;70.20;99136.23;102743;1259;111936;-72
2023/08/07 23:59:11;;;;;;;5.30;2.30;;;;;;;15.97;70.22;99132.46;102692;1260;108807;-72
